createdAt,value
2023-02-19T00:03:52.363Z,4.90
2023-02-19T00:08:54.578Z,5.72
2023-02-19T00:13:56.000Z,4.73
2023-02-19T00:19:03.517Z,3.92
2023-02-19T00:24:05.841Z,5.35
2023-02-19T00:29:07.404Z,4.90
2023-02-19T00:34:15.745Z,6.07
2023-02-19T00:39:18.892Z,5.55
2023-02-19T00:49:24.514Z,5.82
2023-02-19T00:54:29.387Z,6.45
2023-02-19T00:59:33.003Z,5.75
2023-02-19T01:04:33.981Z,5.63
2023-02-19T01:09:34.975Z,5.78
2023-02-19T01:14:34.703Z,4.60
2023-02-19T01:19:38.642Z,5.13
2023-02-19T01:24:39.567Z,5.82
2023-02-19T01:29:41.098Z,7.55
2023-02-19T01:34:42.317Z,7.68
2023-02-19T01:39:41.906Z,7.22
2023-02-19T01:45:27.042Z,5.70
2023-02-19T01:50:34.221Z,6.97
2023-02-19T01:55:36.389Z,7.03
2023-02-19T02:00:36.429Z,8.25
2023-02-19T02:05:50.902Z,5.90
2023-02-19T02:10:52.417Z,7.25
2023-02-19T02:16:00.839Z,7.18
2023-02-19T02:21:48.038Z,6.22
2023-02-19T02:27:04.544Z,6.57
2023-02-19T02:32:13.343Z,5.38
2023-02-19T02:37:14.165Z,6.18
2023-02-19T02:42:30.551Z,5.65
2023-02-19T02:47:43.211Z,7.40
2023-02-19T02:53:02.975Z,6.45
2023-02-19T02:58:03.207Z,6.45
2023-02-19T03:03:06.908Z,5.80
2023-02-19T03:08:19.223Z,6.57
2023-02-19T03:13:42.931Z,6.65
2023-02-19T03:19:05.015Z,6.10
2023-02-19T03:24:24.925Z,6.83
2023-02-19T03:29:27.889Z,6.28
2023-02-19T03:34:41.489Z,6.60
2023-02-19T03:39:47.494Z,6.72
2023-02-19T03:45:05.673Z,8.73
2023-02-19T03:50:18.535Z,7.40
2023-02-19T03:55:27.458Z,7.60
2023-02-19T04:00:35.473Z,7.68
2023-02-19T04:05:43.447Z,8.20
2023-02-19T04:10:44.537Z,8.10
2023-02-19T04:15:48.191Z,7.47
2023-02-19T04:25:56.763Z,8.33
2023-02-19T04:30:56.382Z,7.82
2023-02-19T04:35:59.166Z,8.40
2023-02-19T04:40:58.787Z,9.40
2023-02-19T04:46:03.046Z,7.63
2023-02-19T04:51:09.131Z,8.05
2023-02-19T04:56:09.990Z,9.55
2023-02-19T05:01:12.644Z,8.55
2023-02-19T05:06:18.106Z,9.52
2023-02-19T05:11:19.373Z,11.65
2023-02-19T05:16:19.524Z,8.82
2023-02-19T05:21:24.359Z,9.35
2023-02-19T05:26:25.595Z,10.02
2023-02-19T05:31:25.544Z,18.30
2023-02-19T05:36:28.797Z,10.77
2023-02-19T05:41:47.300Z,17.25
2023-02-19T05:47:03.108Z,37.47
2023-02-19T05:52:05.972Z,38.45
2023-02-19T05:57:05.738Z,60.72
2023-02-19T06:02:05.440Z,24.95
2023-02-19T06:07:16.599Z,13.45
2023-02-19T06:12:26.040Z,12.95
2023-02-19T06:17:29.916Z,15.45
2023-02-19T06:22:34.005Z,13.02
2023-02-19T06:27:43.767Z,11.57
2023-02-19T06:32:47.113Z,10.80
2023-02-19T06:37:52.612Z,11.88
2023-02-19T06:42:56.056Z,12.45
2023-02-19T06:48:08.044Z,11.35
2023-02-19T06:53:12.618Z,10.27
2023-02-19T06:58:12.401Z,11.05
2023-02-19T07:03:11.922Z,11.52
2023-02-19T07:08:17.644Z,11.98
2023-02-19T07:13:17.230Z,11.50
2023-02-19T07:18:18.708Z,12.38
2023-02-19T07:23:22.242Z,11.43
2023-02-19T07:33:59.748Z,14.25
2023-02-19T07:39:05.056Z,15.93
2023-02-19T07:44:05.648Z,14.60
2023-02-19T07:49:38.844Z,14.15
2023-02-19T07:54:46.538Z,14.30
2023-02-19T07:59:56.334Z,13.20
2023-02-19T08:04:57.911Z,13.13
2023-02-19T08:10:27.267Z,13.90
2023-02-19T08:21:03.374Z,13.27
2023-02-19T08:26:08.200Z,12.82
2023-02-19T08:31:10.731Z,14.10
2023-02-19T08:36:23.957Z,13.45
2023-02-19T08:41:27.239Z,12.45
2023-02-19T08:46:28.483Z,12.85
2023-02-19T08:51:33.128Z,13.98
2023-02-19T08:56:50.480Z,12.93
2023-02-19T09:02:01.762Z,12.50
2023-02-19T09:07:04.769Z,12.07
2023-02-19T09:12:06.844Z,12.85
2023-02-19T09:17:08.014Z,11.70
2023-02-19T09:22:08.029Z,12.48
2023-02-19T09:27:11.145Z,12.07
2023-02-19T09:32:15.967Z,10.07
2023-02-19T09:37:26.800Z,11.75
2023-02-19T09:42:37.878Z,10.90
2023-02-19T09:47:38.818Z,9.20
2023-02-19T09:52:47.863Z,10.07
2023-02-19T09:57:50.571Z,8.55
2023-02-19T10:08:21.675Z,10.13
2023-02-19T10:13:35.835Z,8.88
2023-02-19T10:18:43.974Z,8.05
2023-02-19T10:23:44.815Z,8.98
2023-02-19T10:28:56.101Z,8.43
2023-02-19T10:34:03.018Z,8.30
2023-02-19T10:39:09.214Z,7.63
2023-02-19T10:44:24.560Z,8.00
2023-02-19T10:49:28.390Z,8.35
2023-02-19T10:54:33.032Z,8.32
2023-02-19T10:59:37.266Z,7.57
2023-02-19T11:04:38.744Z,5.47
2023-02-19T11:09:43.382Z,6.78
2023-02-19T11:14:47.192Z,5.78
2023-02-19T11:19:49.728Z,4.97
2023-02-19T11:24:58.511Z,5.38
2023-02-19T11:35:33.954Z,6.15
2023-02-19T11:40:44.652Z,5.97
2023-02-19T11:45:53.691Z,5.05
2023-02-19T11:51:17.148Z,4.60
2023-02-19T11:56:22.649Z,5.75
2023-02-19T12:01:33.438Z,4.25
2023-02-19T12:06:48.903Z,5.05
2023-02-19T12:12:04.265Z,5.60
2023-02-19T12:17:21.425Z,5.60
2023-02-19T12:22:33.694Z,4.40
2023-02-19T12:27:49.140Z,4.03
2023-02-19T12:33:29.012Z,3.88
2023-02-19T12:38:46.138Z,4.15
2023-02-19T12:43:55.912Z,3.88
2023-02-19T12:49:15.917Z,4.55
2023-02-19T13:01:14.232Z,3.63
2023-02-19T13:35:12.934Z,6.72
2023-02-19T13:40:43.276Z,5.82
2023-02-19T14:01:16.555Z,3.10
2023-02-19T14:40:47.477Z,11.27
2023-02-19T14:45:51.019Z,8.15
2023-02-19T14:50:52.934Z,2.67
2023-02-19T14:55:56.075Z,3.00
2023-02-19T15:00:54.891Z,3.70
2023-02-19T15:05:58.210Z,2.70
2023-02-19T15:10:58.442Z,2.90
2023-02-19T15:15:57.810Z,3.00
2023-02-19T15:21:02.511Z,3.25
2023-02-19T15:26:03.398Z,1.60
2023-02-19T15:31:14.306Z,3.15
2023-02-19T15:36:14.545Z,3.83
2023-02-19T15:41:23.071Z,1.88
2023-02-19T15:46:23.535Z,3.30
2023-02-19T15:51:28.055Z,3.15
2023-02-19T15:56:31.470Z,5.85
2023-02-19T16:01:31.736Z,3.60
2023-02-19T16:06:30.703Z,3.92
2023-02-19T16:11:36.391Z,2.80
2023-02-19T16:16:41.091Z,3.47
2023-02-19T16:21:40.225Z,4.25
2023-02-19T16:26:43.126Z,4.20
2023-02-19T16:31:49.636Z,5.72
2023-02-19T16:36:49.560Z,6.38
2023-02-19T16:42:21.005Z,5.65
2023-02-19T16:47:45.295Z,4.70
2023-02-19T16:52:54.796Z,4.80
2023-02-19T16:57:55.474Z,6.70
2023-02-19T17:02:56.736Z,6.38
2023-02-19T17:07:55.641Z,4.82
2023-02-19T17:12:56.747Z,4.97
2023-02-19T17:17:55.741Z,4.40
2023-02-19T17:22:54.555Z,4.22
2023-02-19T17:27:53.451Z,5.82
2023-02-19T17:32:53.703Z,4.85
2023-02-19T17:37:53.552Z,5.03
2023-02-19T17:42:52.463Z,5.97
2023-02-19T17:47:51.479Z,6.28
2023-02-19T17:52:51.775Z,6.15
2023-02-19T17:57:52.184Z,6.47
2023-02-19T18:02:50.951Z,6.43
2023-02-19T18:07:52.117Z,7.03
2023-02-19T18:12:51.521Z,6.50
2023-02-19T18:17:50.690Z,4.85
2023-02-19T18:22:53.660Z,5.78
2023-02-19T18:32:58.719Z,5.00
2023-02-19T18:38:00.281Z,5.95
2023-02-19T18:42:59.979Z,5.60
2023-02-19T18:48:01.153Z,6.70
2023-02-19T18:53:03.833Z,5.45
2023-02-19T18:58:06.361Z,6.07
2023-02-19T19:03:09.603Z,8.63
2023-02-19T19:08:09.929Z,9.43
2023-02-19T19:13:11.003Z,16.73
2023-02-19T19:18:13.338Z,7.38
2023-02-19T19:23:15.370Z,5.05
2023-02-19T19:28:14.245Z,6.68
2023-02-19T19:33:15.108Z,5.78
2023-02-19T19:38:16.343Z,6.13
2023-02-19T19:43:16.974Z,5.88
2023-02-19T19:48:16.123Z,6.68
2023-02-19T19:53:22.761Z,7.30
2023-02-19T19:58:26.068Z,7.28
2023-02-19T20:03:30.844Z,7.57
2023-02-19T20:08:34.114Z,8.00
2023-02-19T20:13:34.553Z,8.35
2023-02-19T20:18:36.306Z,7.90
2023-02-19T20:23:38.810Z,8.20
2023-02-19T20:28:38.244Z,8.55
2023-02-19T20:33:40.018Z,8.68
2023-02-19T20:38:43.602Z,9.30
2023-02-19T20:43:45.138Z,8.27
2023-02-19T20:48:47.185Z,10.13
2023-02-19T20:53:48.217Z,9.05
2023-02-19T20:58:49.122Z,8.38
2023-02-19T21:03:51.278Z,8.90
2023-02-19T21:08:54.934Z,9.63
2023-02-19T21:14:02.511Z,12.02
2023-02-19T21:19:03.759Z,9.77
2023-02-19T21:24:09.415Z,10.88
2023-02-19T21:29:12.854Z,9.65
2023-02-19T21:34:16.057Z,11.48
2023-02-19T21:39:49.242Z,12.73
2023-02-19T21:44:49.768Z,12.02
2023-02-19T21:49:49.782Z,14.57
2023-02-19T21:54:52.679Z,12.15
2023-02-19T21:59:52.781Z,11.50
2023-02-19T22:04:57.040Z,16.73
2023-02-19T22:15:23.230Z,11.52
2023-02-19T22:20:22.405Z,12.55
2023-02-19T22:25:22.859Z,10.73
2023-02-19T22:30:22.086Z,13.00
2023-02-19T22:35:20.983Z,10.82
2023-02-19T22:40:19.889Z,9.70
2023-02-19T22:45:20.030Z,9.25
2023-02-19T22:50:20.462Z,9.57
2023-02-19T22:55:19.574Z,10.90
2023-02-19T23:00:22.410Z,11.38
2023-02-19T23:05:22.699Z,10.43
2023-02-19T23:10:21.476Z,9.77
2023-02-19T23:15:21.808Z,10.27
2023-02-19T23:20:20.593Z,10.07
2023-02-19T23:25:19.459Z,9.90
2023-02-19T23:30:18.764Z,10.68
2023-02-19T23:35:19.222Z,10.93
2023-02-19T23:40:19.043Z,10.07
2023-02-19T23:45:18.567Z,9.82
2023-02-19T23:50:19.023Z,9.75
2023-02-19T23:55:17.986Z,9.13
